Alts del Encanto, Puerto Rico
Current Conditions -  °F | °C
As of 8:56 AM on Monday 20 Oct 2014 (Local Time) from TJSJ Reporting Station
Scattered Clouds Scattered Clouds  
Wind Chill: 29°   Ceiling: Unl
Heat Index: 34°   Visibility: 10mi
Dew Point: 24°   Wind: 5mph
Humidity: 76%   Direction: 80°E
Pressure: 29.99"   Gusts: NA
Location:  18.0561°N, 66.5063°W
Report Text: TJSJ 201256Z 08004KT 10SM SCT030 SCT075 29/24 A2999 RMK AO2 SLP153 T02890244
Loading
Personal Weather Stations






























Interactive Weather Map
Tropical Storm Tracking
New forecast layout! Learn more

10-Day Weather Forecast

Advertisements
Track Severe Weather on mobile